sensor_id;sensor_type;location;lat;lon;timestamp;pressure;altitude;pressure_sealevel;temperature;humidity
52839;BME280;39219;53.678;9.856;2022-09-27T00:01:12;99052.91;;;10.64;100.00
52839;BME280;39219;53.678;9.856;2022-09-27T00:03:39;99056.69;;;10.60;100.00
52839;BME280;39219;53.678;9.856;2022-09-27T00:06:08;99056.75;;;10.58;100.00
52839;BME280;39219;53.678;9.856;2022-09-27T00:08:35;99051.03;;;10.66;100.00
52839;BME280;39219;53.678;9.856;2022-09-27T00:11:04;99048.47;;;10.64;100.00
52839;BME280;39219;53.678;9.856;2022-09-27T00:13:31;99052.75;;;10.67;100.00
52839;BME280;39219;53.678;9.856;2022-09-27T00:15:59;99055.56;;;10.64;100.00
52839;BME280;39219;53.678;9.856;2022-09-27T00:18:28;99055.91;;;10.58;100.00
52839;BME280;39219;53.678;9.856;2022-09-27T00:20:55;99048.88;;;10.57;100.00
52839;BME280;39219;53.678;9.856;2022-09-27T00:23:22;99046.66;;;10.65;100.00
52839;BME280;39219;53.678;9.856;2022-09-27T00:25:58;99047.06;;;10.75;100.00
52839;BME280;39219;53.678;9.856;2022-09-27T00:28:25;99039.56;;;10.65;100.00
52839;BME280;39219;53.678;9.856;2022-09-27T00:30:51;99040.56;;;10.63;100.00
52839;BME280;39219;53.678;9.856;2022-09-27T00:33:18;99041.50;;;10.62;100.00
52839;BME280;39219;53.678;9.856;2022-09-27T00:35:46;99042.38;;;10.62;100.00
52839;BME280;39219;53.678;9.856;2022-09-27T00:38:13;99031.75;;;10.62;100.00
52839;BME280;39219;53.678;9.856;2022-09-27T00:40:40;99030.66;;;10.66;100.00
52839;BME280;39219;53.678;9.856;2022-09-27T00:43:14;99034.25;;;10.65;100.00
52839;BME280;39219;53.678;9.856;2022-09-27T00:45:42;99030.81;;;10.63;100.00
52839;BME280;39219;53.678;9.856;2022-09-27T00:48:12;99026.31;;;10.65;100.00
52839;BME280;39219;53.678;9.856;2022-09-27T00:50:46;99030.28;;;10.57;100.00
52839;BME280;39219;53.678;9.856;2022-09-27T00:53:17;99020.38;;;10.60;100.00
52839;BME280;39219;53.678;9.856;2022-09-27T00:55:49;99022.50;;;10.54;100.00
52839;BME280;39219;53.678;9.856;2022-09-27T00:58:21;99024.84;;;10.60;100.00
52839;BME280;39219;53.678;9.856;2022-09-27T01:00:51;99022.00;;;10.63;100.00
52839;BME280;39219;53.678;9.856;2022-09-27T01:03:24;99014.69;;;10.50;100.00
52839;BME280;39219;53.678;9.856;2022-09-27T01:05:56;99023.44;;;10.52;100.00
52839;BME280;39219;53.678;9.856;2022-09-27T01:08:23;99022.38;;;10.55;100.00
52839;BME280;39219;53.678;9.856;2022-09-27T01:10:58;99015.84;;;10.62;100.00
52839;BME280;39219;53.678;9.856;2022-09-27T01:13:29;99009.50;;;10.65;100.00
52839;BME280;39219;53.678;9.856;2022-09-27T01:16:04;99004.34;;;10.62;100.00
52839;BME280;39219;53.678;9.856;2022-09-27T01:18:37;99006.16;;;10.61;100.00
52839;BME280;39219;53.678;9.856;2022-09-27T01:21:30;98994.75;;;10.77;100.00
52839;BME280;39219;53.678;9.856;2022-09-27T01:24:30;99000.44;;;10.69;100.00
52839;BME280;39219;53.678;9.856;2022-09-27T01:30:30;98998.28;;;10.60;100.00
52839;BME280;39219;53.678;9.856;2022-09-27T01:33:11;98998.81;;;10.66;100.00
52839;BME280;39219;53.678;9.856;2022-09-27T01:35:48;98998.72;;;10.68;100.00
52839;BME280;39219;53.678;9.856;2022-09-27T01:38:23;98988.19;;;10.66;100.00
52839;BME280;39219;53.678;9.856;2022-09-27T01:40:58;98995.28;;;10.66;100.00
52839;BME280;39219;53.678;9.856;2022-09-27T01:43:33;98994.13;;;10.72;100.00
52839;BME280;39219;53.678;9.856;2022-09-27T01:46:05;98987.47;;;10.63;100.00
52839;BME280;39219;53.678;9.856;2022-09-27T01:48:37;98986.38;;;10.67;100.00
52839;BME280;39219;53.678;9.856;2022-09-27T01:51:09;98980.91;;;10.70;100.00
52839;BME280;39219;53.678;9.856;2022-09-27T01:53:38;98973.66;;;10.74;100.00
52839;BME280;39219;53.678;9.856;2022-09-27T01:56:09;98976.16;;;10.77;100.00
52839;BME280;39219;53.678;9.856;2022-09-27T01:58:41;98972.09;;;10.70;100.00
52839;BME280;39219;53.678;9.856;2022-09-27T02:01:12;98969.91;;;10.78;100.00
52839;BME280;39219;53.678;9.856;2022-09-27T02:03:43;98971.84;;;10.74;100.00
52839;BME280;39219;53.678;9.856;2022-09-27T02:06:15;98961.72;;;10.65;100.00
52839;BME280;39219;53.678;9.856;2022-09-27T02:08:46;98964.66;;;10.76;100.00
52839;BME280;39219;53.678;9.856;2022-09-27T02:11:14;98968.41;;;10.72;100.00
52839;BME280;39219;53.678;9.856;2022-09-27T02:13:44;98961.34;;;10.73;100.00
52839;BME280;39219;53.678;9.856;2022-09-27T02:16:20;98960.22;;;10.77;100.00
52839;BME280;39219;53.678;9.856;2022-09-27T02:18:52;98957.56;;;10.77;100.00
52839;BME280;39219;53.678;9.856;2022-09-27T02:21:24;98950.72;;;10.73;100.00
52839;BME280;39219;53.678;9.856;2022-09-27T02:23:57;98954.38;;;10.70;100.00
52839;BME280;39219;53.678;9.856;2022-09-27T02:26:32;98954.16;;;10.75;100.00
52839;BME280;39219;53.678;9.856;2022-09-27T02:29:06;98948.56;;;10.79;100.00
52839;BME280;39219;53.678;9.856;2022-09-27T02:31:35;98957.81;;;10.72;100.00
52839;BME280;39219;53.678;9.856;2022-09-27T02:34:04;98955.84;;;10.76;100.00
52839;BME280;39219;53.678;9.856;2022-09-27T02:36:32;98950.44;;;10.77;100.00
52839;BME280;39219;53.678;9.856;2022-09-27T02:38:59;98949.50;;;10.78;100.00
52839;BME280;39219;53.678;9.856;2022-09-27T02:41:26;98947.97;;;10.74;100.00
52839;BME280;39219;53.678;9.856;2022-09-27T02:43:54;98946.19;;;10.75;100.00
52839;BME280;39219;53.678;9.856;2022-09-27T02:46:45;98951.25;;;10.62;100.00
52839;BME280;39219;53.678;9.856;2022-09-27T02:49:23;98942.34;;;10.63;100.00
52839;BME280;39219;53.678;9.856;2022-09-27T02:52:01;98937.25;;;10.60;100.00
52839;BME280;39219;53.678;9.856;2022-09-27T02:54:38;98932.63;;;10.63;100.00
52839;BME280;39219;53.678;9.856;2022-09-27T02:57:15;98933.28;;;10.67;100.00
52839;BME280;39219;53.678;9.856;2022-09-27T02:59:50;98947.13;;;10.74;100.00
52839;BME280;39219;53.678;9.856;2022-09-27T03:02:29;98941.03;;;10.72;100.00
52839;BME280;39219;53.678;9.856;2022-09-27T03:05:00;98935.16;;;10.65;100.00
52839;BME280;39219;53.678;9.856;2022-09-27T03:07:28;98933.72;;;10.59;100.00
52839;BME280;39219;53.678;9.856;2022-09-27T03:09:55;98939.75;;;10.45;100.00
52839;BME280;39219;53.678;9.856;2022-09-27T03:12:22;98934.28;;;10.48;100.00
52839;BME280;39219;53.678;9.856;2022-09-27T03:14:51;98936.69;;;10.53;100.00
52839;BME280;39219;53.678;9.856;2022-09-27T03:17:18;98928.97;;;10.48;100.00
52839;BME280;39219;53.678;9.856;2022-09-27T03:19:46;98925.13;;;10.54;100.00
52839;BME280;39219;53.678;9.856;2022-09-27T03:22:12;98926.94;;;10.54;100.00
52839;BME280;39219;53.678;9.856;2022-09-27T03:24:39;98926.06;;;10.53;100.00
52839;BME280;39219;53.678;9.856;2022-09-27T03:27:05;98931.53;;;10.50;100.00
52839;BME280;39219;53.678;9.856;2022-09-27T03:29:32;98929.75;;;10.50;100.00
52839;BME280;39219;53.678;9.856;2022-09-27T03:31:59;98920.16;;;10.48;100.00
52839;BME280;39219;53.678;9.856;2022-09-27T03:34:25;98919.53;;;10.43;100.00
52839;BME280;39219;53.678;9.856;2022-09-27T03:36:53;98919.31;;;10.47;100.00
52839;BME280;39219;53.678;9.856;2022-09-27T03:39:20;98909.47;;;10.49;100.00
52839;BME280;39219;53.678;9.856;2022-09-27T03:41:46;98912.28;;;10.46;100.00
52839;BME280;39219;53.678;9.856;2022-09-27T03:44:13;98909.31;;;10.52;100.00
52839;BME280;39219;53.678;9.856;2022-09-27T03:46:39;98910.91;;;10.55;100.00
52839;BME280;39219;53.678;9.856;2022-09-27T03:49:06;98909.47;;;10.49;100.00
52839;BME280;39219;53.678;9.856;2022-09-27T03:51:32;98908.59;;;10.49;100.00
52839;BME280;39219;53.678;9.856;2022-09-27T03:54:00;98907.59;;;10.51;100.00
52839;BME280;39219;53.678;9.856;2022-09-27T03:56:27;98892.16;;;10.42;100.00
52839;BME280;39219;53.678;9.856;2022-09-27T03:58:53;98895.56;;;10.44;100.00
52839;BME280;39219;53.678;9.856;2022-09-27T04:01:20;98895.16;;;10.52;100.00
52839;BME280;39219;53.678;9.856;2022-09-27T04:03:47;98894.06;;;10.56;100.00
52839;BME280;39219;53.678;9.856;2022-09-27T04:06:14;98899.78;;;10.48;100.00
52839;BME280;39219;53.678;9.856;2022-09-27T04:08:43;98898.22;;;10.44;100.00
52839;BME280;39219;53.678;9.856;2022-09-27T04:11:11;98890.19;;;10.46;100.00
52839;BME280;39219;53.678;9.856;2022-09-27T04:13:39;98890.78;;;10.51;100.00
52839;BME280;39219;53.678;9.856;2022-09-27T04:16:08;98887.19;;;10.52;100.00
52839;BME280;39219;53.678;9.856;2022-09-27T04:18:35;98889.50;;;10.42;100.00
52839;BME280;39219;53.678;9.856;2022-09-27T04:21:01;98892.44;;;10.54;100.00
52839;BME280;39219;53.678;9.856;2022-09-27T04:23:28;98891.34;;;10.58;100.00
52839;BME280;39219;53.678;9.856;2022-09-27T04:25:55;98895.72;;;10.59;100.00
52839;BME280;39219;53.678;9.856;2022-09-27T04:28:23;98896.06;;;10.69;100.00
52839;BME280;39219;53.678;9.856;2022-09-27T04:30:49;98891.34;;;10.58;100.00
52839;BME280;39219;53.678;9.856;2022-09-27T04:33:16;98893.56;;;10.65;100.00
52839;BME280;39219;53.678;9.856;2022-09-27T04:35:42;98891.91;;;10.63;100.00
52839;BME280;39219;53.678;9.856;2022-09-27T04:38:26;98891.16;;;10.61;100.00
52839;BME280;39219;53.678;9.856;2022-09-27T04:40:53;98895.72;;;10.59;100.00
52839;BME280;39219;53.678;9.856;2022-09-27T04:43:19;98893.06;;;10.59;100.00
52839;BME280;39219;53.678;9.856;2022-09-27T04:45:47;98888.69;;;10.58;100.00
52839;BME280;39219;53.678;9.856;2022-09-27T04:48:14;98890.56;;;10.56;100.00
52839;BME280;39219;53.678;9.856;2022-09-27T04:50:40;98897.81;;;10.52;100.00
52839;BME280;39219;53.678;9.856;2022-09-27T04:53:10;98892.50;;;10.52;100.00
52839;BME280;39219;53.678;9.856;2022-09-27T04:55:38;98887.75;;;10.59;100.00
52839;BME280;39219;53.678;9.856;2022-09-27T04:58:04;98885.41;;;10.52;100.00
52839;BME280;39219;53.678;9.856;2022-09-27T05:00:31;98880.19;;;10.51;100.00
52839;BME280;39219;53.678;9.856;2022-09-27T05:02:59;98885.47;;;10.51;100.00
52839;BME280;39219;53.678;9.856;2022-09-27T05:05:25;98887.47;;;10.47;100.00
52839;BME280;39219;53.678;9.856;2022-09-27T05:07:52;98890.28;;;10.44;100.00
52839;BME280;39219;53.678;9.856;2022-09-27T05:10:19;98888.72;;;10.40;100.00
52839;BME280;39219;53.678;9.856;2022-09-27T05:12:45;98884.03;;;10.45;100.00
52839;BME280;39219;53.678;9.856;2022-09-27T05:15:12;98885.75;;;10.46;100.00
52839;BME280;39219;53.678;9.856;2022-09-27T05:17:38;98894.38;;;10.50;100.00
52839;BME280;39219;53.678;9.856;2022-09-27T05:20:07;98893.38;;;10.52;100.00
52839;BME280;39219;53.678;9.856;2022-09-27T05:22:34;98890.72;;;10.52;100.00
52839;BME280;39219;53.678;9.856;2022-09-27T05:25:02;98897.50;;;10.58;100.00
52839;BME280;39219;53.678;9.856;2022-09-27T05:27:28;98895.09;;;10.54;100.00
52839;BME280;39219;53.678;9.856;2022-09-27T05:29:55;98894.06;;;10.56;100.00
52839;BME280;39219;53.678;9.856;2022-09-27T05:32:24;98888.59;;;10.59;100.00
52839;BME280;39219;53.678;9.856;2022-09-27T05:34:51;98890.97;;;10.64;100.00
52839;BME280;39219;53.678;9.856;2022-09-27T05:37:19;98883.97;;;10.63;100.00
52839;BME280;39219;53.678;9.856;2022-09-27T05:39:46;98886.28;;;10.69;100.00
52839;BME280;39219;53.678;9.856;2022-09-27T05:42:14;98890.66;;;10.70;100.00
52839;BME280;39219;53.678;9.856;2022-09-27T05:44:41;98892.22;;;10.74;100.00
52839;BME280;39219;53.678;9.856;2022-09-27T05:47:11;98894.88;;;10.74;100.00
52839;BME280;39219;53.678;9.856;2022-09-27T05:49:38;98903.53;;;10.78;100.00
52839;BME280;39219;53.678;9.856;2022-09-27T05:52:05;98897.34;;;10.77;100.00
52839;BME280;39219;53.678;9.856;2022-09-27T05:54:33;98895.56;;;10.78;100.00
52839;BME280;39219;53.678;9.856;2022-09-27T05:56:59;98898.28;;;10.76;100.00
52839;BME280;39219;53.678;9.856;2022-09-27T05:59:26;98902.66;;;10.77;100.00
52839;BME280;39219;53.678;9.856;2022-09-27T06:01:53;98898.91;;;10.81;100.00
52839;BME280;39219;53.678;9.856;2022-09-27T06:04:20;98900.78;;;10.79;100.00
52839;BME280;39219;53.678;9.856;2022-09-27T06:06:47;98903.09;;;10.86;100.00
52839;BME280;39219;53.678;9.856;2022-09-27T06:09:15;98903.81;;;10.89;100.00
52839;BME280;39219;53.678;9.856;2022-09-27T06:11:43;98902.69;;;10.93;100.00
52839;BME280;39219;53.678;9.856;2022-09-27T06:14:11;98906.97;;;10.96;100.00
52839;BME280;39219;53.678;9.856;2022-09-27T06:16:37;98905.00;;;11.00;100.00
52839;BME280;39219;53.678;9.856;2022-09-27T06:19:04;98897.03;;;11.00;100.00
52839;BME280;39219;53.678;9.856;2022-09-27T06:21:30;98905.28;;;11.11;100.00
52839;BME280;39219;53.678;9.856;2022-09-27T06:23:57;98901.50;;;11.15;100.00
52839;BME280;39219;53.678;9.856;2022-09-27T06:26:24;98903.59;;;11.26;100.00
52839;BME280;39219;53.678;9.856;2022-09-27T06:28:53;98908.69;;;11.29;100.00
52839;BME280;39219;53.678;9.856;2022-09-27T06:31:20;98908.13;;;11.24;100.00
52839;BME280;39219;53.678;9.856;2022-09-27T06:33:47;98918.50;;;11.13;100.00
52839;BME280;39219;53.678;9.856;2022-09-27T06:36:14;98909.81;;;11.09;100.00
52839;BME280;39219;53.678;9.856;2022-09-27T06:38:40;98913.69;;;11.19;100.00
52839;BME280;39219;53.678;9.856;2022-09-27T06:41:07;98928.69;;;11.36;100.00
52839;BME280;39219;53.678;9.856;2022-09-27T06:43:34;98918.66;;;11.41;100.00
52839;BME280;39219;53.678;9.856;2022-09-27T06:46:03;98927.38;;;11.44;100.00
52839;BME280;39219;53.678;9.856;2022-09-27T06:48:30;98928.75;;;11.51;100.00
52839;BME280;39219;53.678;9.856;2022-09-27T06:50:57;98924.06;;;11.40;100.00
52839;BME280;39219;53.678;9.856;2022-09-27T06:53:24;98924.72;;;11.44;100.00
52839;BME280;39219;53.678;9.856;2022-09-27T06:55:56;98935.28;;;11.45;100.00
52839;BME280;39219;53.678;9.856;2022-09-27T06:58:23;98936.84;;;11.49;100.00
52839;BME280;39219;53.678;9.856;2022-09-27T07:01:09;98939.81;;;11.59;100.00
52839;BME280;39219;53.678;9.856;2022-09-27T07:03:36;98942.16;;;11.49;100.00
52839;BME280;39219;53.678;9.856;2022-09-27T07:06:07;98945.47;;;11.53;100.00
52839;BME280;39219;53.678;9.856;2022-09-27T07:08:37;98942.06;;;11.51;100.00
52839;BME280;39219;53.678;9.856;2022-09-27T07:11:06;98935.78;;;11.52;100.00
52839;BME280;39219;53.678;9.856;2022-09-27T07:13:34;98942.66;;;11.56;100.00
52839;BME280;39219;53.678;9.856;2022-09-27T07:16:08;98944.19;;;11.60;100.00
52839;BME280;39219;53.678;9.856;2022-09-27T07:18:35;98947.72;;;11.45;100.00
52839;BME280;39219;53.678;9.856;2022-09-27T07:21:02;98950.09;;;11.33;100.00
52839;BME280;39219;53.678;9.856;2022-09-27T07:23:29;98947.28;;;11.36;100.00
52839;BME280;39219;53.678;9.856;2022-09-27T07:25:55;98954.75;;;11.46;100.00
52839;BME280;39219;53.678;9.856;2022-09-27T07:28:22;98956.38;;;11.48;100.00
52839;BME280;39219;53.678;9.856;2022-09-27T07:30:52;98957.31;;;11.63;100.00
52839;BME280;39219;53.678;9.856;2022-09-27T07:33:21;98955.25;;;11.68;100.00
52839;BME280;39219;53.678;9.856;2022-09-27T07:35:47;98961.50;;;11.67;100.00
52839;BME280;39219;53.678;9.856;2022-09-27T07:38:14;98967.34;;;11.90;100.00
52839;BME280;39219;53.678;9.856;2022-09-27T07:40:41;98972.22;;;11.82;100.00
52839;BME280;39219;53.678;9.856;2022-09-27T07:43:08;98967.84;;;11.81;100.00
52839;BME280;39219;53.678;9.856;2022-09-27T07:45:35;98972.72;;;11.89;100.00
52839;BME280;39219;53.678;9.856;2022-09-27T07:48:03;98972.91;;;11.85;100.00
52839;BME280;39219;53.678;9.856;2022-09-27T07:50:31;98975.81;;;11.97;100.00
52839;BME280;39219;53.678;9.856;2022-09-27T07:52:58;98980.41;;;11.93;100.00
52839;BME280;39219;53.678;9.856;2022-09-27T07:55:25;98981.41;;;12.08;100.00
52839;BME280;39219;53.678;9.856;2022-09-27T07:57:51;98976.91;;;12.09;100.00
52839;BME280;39219;53.678;9.856;2022-09-27T08:00:18;98980.03;;;12.01;100.00
52839;BME280;39219;53.678;9.856;2022-09-27T08:02:45;98982.59;;;12.03;100.00
52839;BME280;39219;53.678;9.856;2022-09-27T08:05:12;98979.94;;;12.03;100.00
52839;BME280;39219;53.678;9.856;2022-09-27T08:07:40;98989.28;;;11.94;100.00
52839;BME280;39219;53.678;9.856;2022-09-27T08:10:07;98995.25;;;11.97;100.00
52839;BME280;39219;53.678;9.856;2022-09-27T08:12:34;98991.50;;;11.85;100.00
52839;BME280;39219;53.678;9.856;2022-09-27T08:15:01;98993.94;;;11.90;100.00
52839;BME280;39219;53.678;9.856;2022-09-27T08:17:29;98993.94;;;11.90;100.00
52839;BME280;39219;53.678;9.856;2022-09-27T08:19:55;98997.38;;;11.60;100.00
52839;BME280;39219;53.678;9.856;2022-09-27T08:22:23;99009.22;;;11.54;100.00
52839;BME280;39219;53.678;9.856;2022-09-27T08:24:51;99001.81;;;11.60;100.00
52839;BME280;39219;53.678;9.856;2022-09-27T08:27:17;99012.81;;;11.53;100.00
52839;BME280;39219;53.678;9.856;2022-09-27T08:29:44;99011.94;;;11.53;100.00
52839;BME280;39219;53.678;9.856;2022-09-27T08:32:12;99017.84;;;11.58;100.00
52839;BME280;39219;53.678;9.856;2022-09-27T08:34:39;99014.88;;;11.64;100.00
52839;BME280;39219;53.678;9.856;2022-09-27T08:37:06;99018.03;;;11.71;100.00
52839;BME280;39219;53.678;9.856;2022-09-27T08:39:32;99022.16;;;11.77;100.00
52839;BME280;39219;53.678;9.856;2022-09-27T08:42:05;99020.28;;;11.79;100.00
52839;BME280;39219;53.678;9.856;2022-09-27T08:44:42;99023.25;;;11.89;100.00
52839;BME280;39219;53.678;9.856;2022-09-27T08:47:15;99028.22;;;11.95;100.00
52839;BME280;39219;53.678;9.856;2022-09-27T08:49:47;99031.56;;;11.98;100.00
52839;BME280;39219;53.678;9.856;2022-09-27T08:52:18;99019.13;;;11.99;100.00
52839;BME280;39219;53.678;9.856;2022-09-27T08:54:45;99032.44;;;11.99;100.00
52839;BME280;39219;53.678;9.856;2022-09-27T08:57:15;99028.22;;;11.95;100.00
52839;BME280;39219;53.678;9.856;2022-09-27T08:59:45;99025.47;;;11.96;100.00
52839;BME280;39219;53.678;9.856;2022-09-27T09:02:17;99038.88;;;11.95;100.00
52839;BME280;39219;53.678;9.856;2022-09-27T09:04:46;99033.44;;;11.96;100.00
52839;BME280;39219;53.678;9.856;2022-09-27T09:07:25;99036.88;;;11.98;100.00
52839;BME280;39219;53.678;9.856;2022-09-27T09:10:04;99042.19;;;11.98;100.00
52839;BME280;39219;53.678;9.856;2022-09-27T09:12:40;99046.34;;;11.88;100.00
52839;BME280;39219;53.678;9.856;2022-09-27T09:15:29;99042.38;;;11.95;100.00
52839;BME280;39219;53.678;9.856;2022-09-27T09:18:27;99056.84;;;12.07;100.00
52839;BME280;39219;53.678;9.856;2022-09-27T09:21:04;99052.19;;;12.11;100.00
52839;BME280;39219;53.678;9.856;2022-09-27T09:24:04;99049.69;;;12.08;100.00
52839;BME280;39219;53.678;9.856;2022-09-27T09:26:41;99062.03;;;11.93;100.00
52839;BME280;39219;53.678;9.856;2022-09-27T09:29:21;99058.44;;;11.94;100.00
52839;BME280;39219;53.678;9.856;2022-09-27T09:31:59;99062.31;;;11.88;100.00
52839;BME280;39219;53.678;9.856;2022-09-27T09:34:32;99063.66;;;11.79;100.00
52839;BME280;39219;53.678;9.856;2022-09-27T09:37:02;99063.50;;;11.82;100.00
52839;BME280;39219;53.678;9.856;2022-09-27T09:39:39;99074.19;;;11.65;100.00
52839;BME280;39219;53.678;9.856;2022-09-27T09:42:09;99061.78;;;11.65;100.00
52839;BME280;39219;53.678;9.856;2022-09-27T09:44:44;99068.03;;;11.64;100.00
52839;BME280;39219;53.678;9.856;2022-09-27T09:47:26;99065.22;;;11.67;100.00
52839;BME280;39219;53.678;9.856;2022-09-27T09:49:58;99062.78;;;11.63;100.00
52839;BME280;39219;53.678;9.856;2022-09-27T09:52:35;99063.81;;;11.60;100.00
52839;BME280;39219;53.678;9.856;2022-09-27T09:55:12;99061.84;;;11.48;100.00
52839;BME280;39219;53.678;9.856;2022-09-27T09:57:43;99066.81;;;11.54;100.00
52839;BME280;39219;53.678;9.856;2022-09-27T10:00:14;99062.94;;;11.60;100.00
52839;BME280;39219;53.678;9.856;2022-09-27T10:02:42;99058.84;;;11.70;100.00
52839;BME280;39219;53.678;9.856;2022-09-27T10:05:13;99063.94;;;11.59;100.00
52839;BME280;39219;53.678;9.856;2022-09-27T10:07:40;99065.47;;;11.29;100.00
52839;BME280;39219;53.678;9.856;2022-09-27T10:10:12;99071.94;;;11.07;100.00
52839;BME280;39219;53.678;9.856;2022-09-27T10:12:40;99068.31;;;11.26;100.00
52839;BME280;39219;53.678;9.856;2022-09-27T10:15:15;99066.25;;;11.31;100.00
52839;BME280;39219;53.678;9.856;2022-09-27T10:17:45;99072.97;;;11.38;100.00
52839;BME280;39219;53.678;9.856;2022-09-27T10:20:21;99078.59;;;11.32;100.00
52839;BME280;39219;53.678;9.856;2022-09-27T10:22:52;99072.56;;;11.46;100.00
52839;BME280;39219;53.678;9.856;2022-09-27T10:25:21;99080.56;;;11.62;100.00
52839;BME280;39219;53.678;9.856;2022-09-27T10:27:49;99077.84;;;11.80;100.00
52839;BME280;39219;53.678;9.856;2022-09-27T10:30:24;99088.63;;;11.93;100.00
52839;BME280;39219;53.678;9.856;2022-09-27T10:32:53;99087.72;;;12.10;100.00
52839;BME280;39219;53.678;9.856;2022-09-27T10:35:33;99094.69;;;12.12;100.00
52839;BME280;39219;53.678;9.856;2022-09-27T10:38:20;99089.41;;;12.27;100.00
52839;BME280;39219;53.678;9.856;2022-09-27T10:40:47;99098.94;;;12.47;100.00
52839;BME280;39219;53.678;9.856;2022-09-27T10:43:25;99096.34;;;12.46;100.00
52839;BME280;39219;53.678;9.856;2022-09-27T10:46:03;99101.13;;;12.85;100.00
52839;BME280;39219;53.678;9.856;2022-09-27T10:48:31;99093.78;;;13.20;100.00
52839;BME280;39219;53.678;9.856;2022-09-27T10:50:59;99101.41;;;13.40;100.00
52839;BME280;39219;53.678;9.856;2022-09-27T10:53:28;99098.00;;;13.53;100.00
52839;BME280;39219;53.678;9.856;2022-09-27T10:55:55;99097.41;;;13.33;100.00
52839;BME280;39219;53.678;9.856;2022-09-27T10:58:26;99091.09;;;13.05;100.00
52839;BME280;39219;53.678;9.856;2022-09-27T11:00:55;99099.09;;;13.05;100.00
52839;BME280;39219;53.678;9.856;2022-09-27T11:03:24;99099.31;;;13.31;100.00
52839;BME280;39219;53.678;9.856;2022-09-27T11:05:53;99101.34;;;13.42;100.00
52839;BME280;39219;53.678;9.856;2022-09-27T11:08:22;99101.16;;;13.45;100.00
52839;BME280;39219;53.678;9.856;2022-09-27T11:11:05;99104.88;;;13.71;100.00
52839;BME280;39219;53.678;9.856;2022-09-27T11:13:32;99105.56;;;14.02;100.00
52839;BME280;39219;53.678;9.856;2022-09-27T11:16:14;99107.03;;;13.79;100.00
52839;BME280;39219;53.678;9.856;2022-09-27T11:18:51;99117.06;;;13.61;100.00
52839;BME280;39219;53.678;9.856;2022-09-27T11:21:27;99114.09;;;12.92;100.00
52839;BME280;39219;53.678;9.856;2022-09-27T11:24:11;99118.03;;;13.15;100.00
52839;BME280;39219;53.678;9.856;2022-09-27T11:26:52;99118.34;;;13.39;100.00
52839;BME280;39219;53.678;9.856;2022-09-27T11:29:25;99120.22;;;13.53;100.00
52839;BME280;39219;53.678;9.856;2022-09-27T11:32:11;99115.34;;;13.74;100.00
52839;BME280;39219;53.678;9.856;2022-09-27T11:34:54;99119.72;;;13.75;100.00
52839;BME280;39219;53.678;9.856;2022-09-27T11:37:31;99122.94;;;13.95;100.00
52839;BME280;39219;53.678;9.856;2022-09-27T11:40:14;99121.28;;;14.21;100.00
52839;BME280;39219;53.678;9.856;2022-09-27T11:43:02;99120.44;;;14.06;100.00
52839;BME280;39219;53.678;9.856;2022-09-27T11:45:43;99118.53;;;14.09;100.00
52839;BME280;39219;53.678;9.856;2022-09-27T11:48:22;99114.78;;;14.53;100.00
52839;BME280;39219;53.678;9.856;2022-09-27T11:51:00;99115.47;;;14.42;100.00
52839;BME280;39219;53.678;9.856;2022-09-27T11:53:50;99119.28;;;14.93;100.00
52839;BME280;39219;53.678;9.856;2022-09-27T11:56:33;99123.84;;;15.18;100.00
52839;BME280;39219;53.678;9.856;2022-09-27T11:59:28;99114.94;;;15.31;100.00
52839;BME280;39219;53.678;9.856;2022-09-27T12:02:08;99119.75;;;15.51;99.30
52839;BME280;39219;53.678;9.856;2022-09-27T12:04:50;99126.28;;;15.21;97.99
52839;BME280;39219;53.678;9.856;2022-09-27T12:07:29;99123.69;;;14.66;100.00
52839;BME280;39219;53.678;9.856;2022-09-27T12:10:03;99130.53;;;14.98;100.00
52839;BME280;39219;53.678;9.856;2022-09-27T12:12:35;99122.91;;;14.64;98.99
52839;BME280;39219;53.678;9.856;2022-09-27T12:15:13;99124.41;;;14.56;100.00
52839;BME280;39219;53.678;9.856;2022-09-27T12:17:43;99121.09;;;14.52;100.00
52839;BME280;39219;53.678;9.856;2022-09-27T12:20:16;99128.22;;;14.24;97.78
52839;BME280;39219;53.678;9.856;2022-09-27T12:22:50;99123.38;;;14.16;100.00
52839;BME280;39219;53.678;9.856;2022-09-27T12:25:18;99134.31;;;14.54;100.00
52839;BME280;39219;53.678;9.856;2022-09-27T12:27:49;99127.38;;;14.51;99.34
52839;BME280;39219;53.678;9.856;2022-09-27T12:30:17;99131.81;;;14.65;100.00
52839;BME280;39219;53.678;9.856;2022-09-27T12:32:51;99133.63;;;14.37;98.74
52839;BME280;39219;53.678;9.856;2022-09-27T12:35:23;99137.06;;;14.25;100.00
52839;BME280;39219;53.678;9.856;2022-09-27T12:37:57;99139.31;;;14.03;100.00
52839;BME280;39219;53.678;9.856;2022-09-27T12:40:27;99130.75;;;14.40;100.00
52839;BME280;39219;53.678;9.856;2022-09-27T12:42:57;99131.00;;;14.50;100.00
52839;BME280;39219;53.678;9.856;2022-09-27T12:45:32;99134.97;;;14.30;98.14
52839;BME280;39219;53.678;9.856;2022-09-27T12:48:07;99130.72;;;14.13;99.09
52839;BME280;39219;53.678;9.856;2022-09-27T12:50:41;99131.03;;;14.08;100.00
52839;BME280;39219;53.678;9.856;2022-09-27T12:53:13;99135.75;;;13.75;100.00
52839;BME280;39219;53.678;9.856;2022-09-27T12:55:54;99128.19;;;13.97;100.00
52839;BME280;39219;53.678;9.856;2022-09-27T12:58:43;99131.88;;;14.09;100.00
52839;BME280;39219;53.678;9.856;2022-09-27T13:01:19;99131.75;;;13.68;100.00
52839;BME280;39219;53.678;9.856;2022-09-27T13:04:03;99124.13;;;13.76;100.00
52839;BME280;39219;53.678;9.856;2022-09-27T13:06:56;99139.81;;;13.81;100.00
52839;BME280;39219;53.678;9.856;2022-09-27T13:09:40;99142.22;;;13.86;100.00
52839;BME280;39219;53.678;9.856;2022-09-27T13:12:08;99138.16;;;14.07;100.00
52839;BME280;39219;53.678;9.856;2022-09-27T13:14:42;99146.72;;;14.27;99.15